createdAt,value
2024-01-26T00:18:19.261Z,3.35
2024-01-26T00:38:19.628Z,3.31
2024-01-26T00:58:20.190Z,3.25
2024-01-26T01:54:42.938Z,3.2
2024-01-26T01:54:45.628Z,3.26
2024-01-26T02:01:11.067Z,3.31
2024-01-26T02:18:19.859Z,3.38
2024-01-26T02:38:19.755Z,3.49
2024-01-26T02:58:19.648Z,3.45
2024-01-26T03:18:20.012Z,3.38
2024-01-26T03:38:19.736Z,3.48
2024-01-26T03:58:19.784Z,3.55
2024-01-26T04:18:20.036Z,3.59
2024-01-26T04:38:19.914Z,3.62
2024-01-26T04:58:19.922Z,3.71
2024-01-26T05:18:20.062Z,3.78
2024-01-26T05:38:19.970Z,3.82
2024-01-26T05:58:20.012Z,3.9
2024-01-26T06:18:20.203Z,3.95
2024-01-26T06:58:20.192Z,4.09
2024-01-26T07:18:20.336Z,4.22
2024-01-26T07:38:20.420Z,4.46
2024-01-26T07:58:20.304Z,4.82
2024-01-26T08:18:20.432Z,5.66
2024-01-26T08:38:20.385Z,6.06
2024-01-26T08:58:20.457Z,6.35
2024-01-26T09:18:20.876Z,6.87
2024-01-26T09:38:20.552Z,7.3
2024-01-26T09:58:20.906Z,7.77
2024-01-26T10:18:20.720Z,8.27
2024-01-26T10:38:20.900Z,8.44
2024-01-26T10:58:20.701Z,8.45
2024-01-26T11:18:20.836Z,8.45
2024-01-26T11:38:20.835Z,8.48
2024-01-26T11:58:20.776Z,8.45
2024-01-26T12:18:20.935Z,8.55
2024-01-26T12:38:20.817Z,8.62
2024-01-26T12:58:20.980Z,8.65
2024-01-26T13:18:26.506Z,8.82
2024-01-26T13:38:20.941Z,8.9
2024-01-26T13:58:21.118Z,9.04
2024-01-26T14:18:21.208Z,9.1
2024-01-26T14:38:21.138Z,9.1
2024-01-26T14:58:21.135Z,9.1
2024-01-26T15:18:21.302Z,9.05
2024-01-26T15:38:21.342Z,8.12
2024-01-26T15:58:21.252Z,7.7
2024-01-26T16:18:21.852Z,7.21
2024-01-26T16:38:21.333Z,6.61
2024-01-26T16:58:21.577Z,6.18
2024-01-26T17:18:21.473Z,5.77
2024-01-26T17:38:21.510Z,5.35
2024-01-26T17:58:21.611Z,5.4
2024-01-26T18:18:21.598Z,5.72
2024-01-26T18:38:22.330Z,6.07
2024-01-26T18:58:21.641Z,6.04
2024-01-26T19:18:21.717Z,6.18
2024-01-26T19:38:21.804Z,6.17
2024-01-26T19:58:21.777Z,5.9
2024-01-26T20:18:21.869Z,5.57
2024-01-26T20:38:21.867Z,5.49
2024-01-26T20:58:22.044Z,5.42
2024-01-26T21:18:22.147Z,5.44
2024-01-26T21:38:23.673Z,5.44
2024-01-26T21:58:22.062Z,5.23
2024-01-26T22:18:35.731Z,5.18
2024-01-26T22:38:22.161Z,4.58
2024-01-26T22:58:22.236Z,4
2024-01-26T23:18:22.381Z,3.61
2024-01-26T23:38:22.934Z,3.75
2024-01-26T23:58:22.327Z,3.7
